createdAt,value
2023-05-14T00:00:33.955Z,68407.91
2023-05-14T00:03:01.454Z,68404.50
2023-05-14T00:05:28.676Z,68395.63
2023-05-14T00:07:57.415Z,68394.31
2023-05-14T00:10:29.272Z,68394.69
2023-05-14T00:12:56.340Z,68386.94
2023-05-14T00:15:23.495Z,68380.69
2023-05-14T00:17:50.745Z,68374.25
2023-05-14T00:20:18.574Z,68359.53
2023-05-14T00:22:45.692Z,68365.94
2023-05-14T00:25:13.531Z,68368.22
2023-05-14T00:27:43.638Z,68371.63
2023-05-14T00:30:11.242Z,68377.88
2023-05-14T00:32:41.946Z,68384.84
2023-05-14T00:35:11.779Z,68387.47
2023-05-14T00:37:39.444Z,68398.66
2023-05-14T00:40:12.950Z,68413.59
2023-05-14T00:42:43.601Z,68415.66
2023-05-14T00:45:11.129Z,68415.28
2023-05-14T00:47:41.558Z,68412.63
2023-05-14T00:50:12.922Z,68420.38
2023-05-14T00:52:43.229Z,68420.97
2023-05-14T00:55:16.445Z,68418.88
2023-05-14T00:57:43.983Z,68429.28
2023-05-14T01:00:14.225Z,68414.34
2023-05-14T01:02:43.891Z,68401.47
2023-05-14T01:05:14.561Z,68401.28
2023-05-14T01:08:05.406Z,68404.13
2023-05-14T01:10:49.077Z,68401.13
2023-05-14T01:13:33.724Z,68394.13
2023-05-14T01:16:04.054Z,68383.16
2023-05-14T01:18:35.509Z,68366.69
2023-05-14T01:21:06.715Z,68363.69
2023-05-14T01:23:34.458Z,68362.56
2023-05-14T01:26:01.749Z,68392.41
2023-05-14T01:28:35.442Z,68393.91
2023-05-14T01:31:11.255Z,68406.03
2023-05-14T01:33:45.269Z,68401.28
2023-05-14T01:36:16.236Z,68400.53
2023-05-14T01:38:47.239Z,68403.56
2023-05-14T01:41:25.335Z,68420.19
2023-05-14T01:43:53.057Z,68422.09
2023-05-14T01:46:27.852Z,68425.31
2023-05-14T01:48:56.926Z,68401.69
2023-05-14T01:51:33.289Z,68372.94
2023-05-14T01:54:01.199Z,68362.34
2023-05-14T01:56:28.445Z,68352.34
2023-05-14T01:58:57.546Z,68332.50
2023-05-14T02:01:26.408Z,68331.56
2023-05-14T02:03:54.157Z,68325.88
2023-05-14T02:06:25.205Z,68320.00
2023-05-14T02:08:52.883Z,68311.31
2023-05-14T02:11:20.397Z,68299.81
2023-05-14T02:13:47.623Z,68301.31
2023-05-14T02:16:18.617Z,68294.13
2023-05-14T02:18:49.117Z,68290.72
2023-05-14T02:21:17.892Z,68284.88
2023-05-14T02:23:48.903Z,68289.97
2023-05-14T02:26:16.091Z,68285.44
2023-05-14T02:28:43.317Z,68287.50
2023-05-14T02:31:13.559Z,68288.84
2023-05-14T02:33:45.613Z,68281.09
2023-05-14T02:36:14.389Z,68283.19
2023-05-14T02:38:41.524Z,68282.03
2023-05-14T02:41:08.655Z,68278.25
2023-05-14T02:43:38.110Z,68266.34
2023-05-14T02:46:08.324Z,68261.28
2023-05-14T02:48:35.470Z,68245.97
2023-05-14T02:51:02.891Z,68243.50
2023-05-14T02:53:30.212Z,68252.00
2023-05-14T02:55:57.416Z,68256.00
2023-05-14T02:58:28.243Z,68263.72
2023-05-14T03:00:56.578Z,68253.91
2023-05-14T03:03:24.308Z,68262.97
2023-05-14T03:05:52.110Z,68246.34
2023-05-14T03:08:19.395Z,68248.63
2023-05-14T03:10:46.503Z,68245.41
2023-05-14T03:13:17.709Z,68248.03
2023-05-14T03:15:44.875Z,68231.81
2023-05-14T03:18:14.124Z,68233.88
2023-05-14T03:20:41.954Z,68234.81
2023-05-14T03:23:09.287Z,68232.19
2023-05-14T03:25:36.463Z,68239.72
2023-05-14T03:28:04.138Z,68249.00
2023-05-14T03:30:31.332Z,68243.50
2023-05-14T03:32:59.008Z,68237.84
2023-05-14T03:35:27.505Z,68236.53
2023-05-14T03:38:02.446Z,68219.16
2023-05-14T03:40:30.355Z,68221.44
2023-05-14T03:42:57.698Z,68225.41
2023-05-14T03:45:33.148Z,68229.34
2023-05-14T03:48:00.352Z,68223.31
2023-05-14T03:50:29.172Z,68229.75
2023-05-14T03:52:56.328Z,68240.31
2023-05-14T03:55:23.657Z,68253.34
2023-05-14T03:57:50.796Z,68252.38
2023-05-14T04:00:20.836Z,68245.78
2023-05-14T04:02:48.290Z,68236.34
2023-05-14T04:05:17.850Z,68240.09
2023-05-14T04:07:46.370Z,68240.69
2023-05-14T04:10:14.172Z,68251.06
2023-05-14T04:12:41.381Z,68252.38
2023-05-14T04:15:09.651Z,68250.88
2023-05-14T04:17:36.934Z,68256.72
2023-05-14T04:20:11.182Z,68261.84
2023-05-14T04:22:42.106Z,68259.00
2023-05-14T04:25:09.526Z,68261.28
2023-05-14T04:27:37.507Z,68263.91
2023-05-14T04:30:05.407Z,68275.81
2023-05-14T04:32:32.467Z,68284.88
2023-05-14T04:34:59.515Z,68292.81
2023-05-14T04:37:26.709Z,68306.97
2023-05-14T04:39:57.288Z,68319.06
2023-05-14T04:42:24.478Z,68342.69
2023-05-14T04:44:51.674Z,68433.81
2023-05-14T04:47:19.112Z,68531.25
2023-05-14T04:49:49.114Z,68618.13
2023-05-14T04:52:16.782Z,68681.19
2023-05-14T04:54:44.121Z,68780.66
2023-05-14T04:57:11.366Z,68848.94
2023-05-14T04:59:38.586Z,68914.16
2023-05-14T05:02:09.020Z,68933.16
2023-05-14T05:04:45.428Z,68999.38
2023-05-14T05:07:13.305Z,69051.63
2023-05-14T05:09:40.777Z,69099.66
2023-05-14T05:12:08.253Z,69084.09
2023-05-14T05:14:35.888Z,69074.97
2023-05-14T05:17:09.041Z,69115.59
2023-05-14T05:19:43.767Z,69162.16
2023-05-14T05:22:11.863Z,69151.91
2023-05-14T05:24:41.288Z,69085.41
2023-05-14T05:27:08.949Z,68995.63
2023-05-14T05:29:37.180Z,68986.84
2023-05-14T05:32:06.216Z,68973.03
2023-05-14T05:34:34.652Z,69032.97
2023-05-14T05:37:06.144Z,69073.25
2023-05-14T05:39:37.905Z,69151.72
2023-05-14T05:42:07.907Z,69159.69
2023-05-14T05:44:35.096Z,69152.63
2023-05-14T05:47:02.635Z,69199.25
2023-05-14T05:49:29.906Z,69284.81
2023-05-14T05:51:59.685Z,69288.97
2023-05-14T05:54:27.351Z,69331.59
2023-05-14T05:56:57.260Z,69438.53
2023-05-14T05:59:27.891Z,69395.13
2023-05-14T06:01:58.473Z,69463.09
2023-05-14T06:04:30.860Z,69491.09
2023-05-14T06:07:04.717Z,69459.50
2023-05-14T06:09:32.441Z,69438.19
2023-05-14T06:12:02.587Z,69414.53
2023-05-14T06:14:30.923Z,69372.69
2023-05-14T06:16:58.850Z,69342.25
2023-05-14T06:19:26.328Z,69348.31
2023-05-14T06:21:56.075Z,69301.34
2023-05-14T06:24:24.674Z,69315.22
2023-05-14T06:27:00.209Z,69446.50
2023-05-14T06:29:35.095Z,69509.94
2023-05-14T06:32:03.953Z,69512.56
2023-05-14T06:34:33.996Z,69653.06
2023-05-14T06:37:04.222Z,69614.28
2023-05-14T06:39:31.647Z,69614.94
2023-05-14T06:41:59.589Z,69583.66
2023-05-14T06:44:29.465Z,69628.25
2023-05-14T06:46:59.768Z,69600.41
2023-05-14T06:49:32.116Z,69539.81
2023-05-14T06:51:59.537Z,69569.78
2023-05-14T06:54:26.686Z,69513.19
2023-05-14T06:56:59.446Z,69490.09
2023-05-14T06:59:29.289Z,69549.19
2023-05-14T07:01:59.827Z,69540.47
2023-05-14T07:04:33.383Z,69483.31
2023-05-14T07:07:01.259Z,69488.81
2023-05-14T07:09:28.645Z,69421.97
2023-05-14T07:11:58.055Z,69348.31
2023-05-14T07:14:25.513Z,69322.28
2023-05-14T07:16:53.957Z,69384.28
2023-05-14T07:19:22.368Z,69352.31
2023-05-14T07:21:49.700Z,69382.59
2023-05-14T07:24:16.918Z,69413.81
2023-05-14T07:26:44.111Z,69336.16
2023-05-14T07:29:11.365Z,69310.66
2023-05-14T07:31:39.048Z,69290.91
2023-05-14T07:34:06.336Z,69359.94
2023-05-14T07:36:36.734Z,69386.59
2023-05-14T07:39:03.850Z,69393.66
2023-05-14T07:41:31.149Z,69404.28
2023-05-14T07:43:58.397Z,69426.13
2023-05-14T07:46:28.410Z,69429.56
2023-05-14T07:48:55.893Z,69322.47
2023-05-14T07:51:24.616Z,69297.19
2023-05-14T07:54:01.398Z,69347.16
2023-05-14T07:56:34.563Z,69337.28
2023-05-14T07:59:02.318Z,69346.59
2023-05-14T08:01:39.306Z,69286.88
2023-05-14T08:04:08.051Z,69316.03
2023-05-14T08:06:35.664Z,69330.44
2023-05-14T08:09:05.529Z,69323.78
2023-05-14T08:11:32.663Z,69401.97
2023-05-14T08:14:01.069Z,69429.78
2023-05-14T08:16:34.215Z,69487.09
2023-05-14T08:19:01.385Z,69442.50
2023-05-14T08:21:28.577Z,69438.19
2023-05-14T08:23:55.730Z,69431.50
2023-05-14T08:26:23.494Z,69405.41
2023-05-14T08:28:50.584Z,69430.53
2023-05-14T08:31:22.759Z,69473.94
2023-05-14T08:33:50.738Z,69426.53
2023-05-14T08:36:17.910Z,69409.66
2023-05-14T08:38:45.464Z,69400.28
2023-05-14T08:41:13.489Z,69355.72
2023-05-14T08:44:05.029Z,69271.13
2023-05-14T08:46:33.068Z,69212.19
2023-05-14T08:49:30.910Z,69219.03
2023-05-14T08:51:59.694Z,69222.84
2023-05-14T08:54:30.125Z,69285.72
2023-05-14T08:57:00.339Z,69261.56
2023-05-14T08:59:29.505Z,69263.84
2023-05-14T09:02:06.366Z,69376.13
2023-05-14T09:04:35.898Z,69458.50
2023-05-14T09:07:10.585Z,69478.69
2023-05-14T09:09:41.547Z,69415.69
2023-05-14T09:12:09.288Z,69405.81
2023-05-14T09:14:36.560Z,69438.53
2023-05-14T09:17:03.869Z,69454.50
2023-05-14T09:19:31.726Z,69465.22
2023-05-14T09:21:59.486Z,69470.91
2023-05-14T09:24:29.167Z,69472.97
2023-05-14T09:26:57.954Z,69443.66
2023-05-14T09:29:28.387Z,69424.25
2023-05-14T09:31:56.900Z,69437.38
2023-05-14T09:34:29.806Z,69514.91
2023-05-14T09:37:01.872Z,69564.81
2023-05-14T09:39:30.376Z,69557.34
2023-05-14T09:42:01.377Z,69527.66
2023-05-14T09:44:29.486Z,69514.16
2023-05-14T09:47:02.460Z,69604.66
2023-05-14T09:49:30.016Z,69541.78
2023-05-14T09:51:58.385Z,69422.38
2023-05-14T09:54:27.020Z,69281.56
2023-05-14T09:56:55.734Z,69238.75
2023-05-14T09:59:23.328Z,69278.13
2023-05-14T10:01:55.080Z,69444.06
2023-05-14T10:04:23.375Z,69565.38
2023-05-14T10:06:55.331Z,69647.28
2023-05-14T10:09:30.966Z,69632.97
2023-05-14T10:12:01.653Z,69589.78
2023-05-14T10:14:58.034Z,69577.97
2023-05-14T10:17:32.565Z,69511.66
2023-05-14T10:20:03.526Z,69607.66
2023-05-14T10:22:37.377Z,69596.22
2023-05-14T10:25:28.091Z,69542.34
2023-05-14T10:28:02.352Z,69484.25
2023-05-14T10:30:29.547Z,69463.88
2023-05-14T10:33:11.250Z,69420.66
2023-05-14T10:36:03.478Z,69490.94
2023-05-14T10:38:33.835Z,69480.63
2023-05-14T10:41:12.908Z,69439.91
2023-05-14T10:43:42.168Z,69537.34
2023-05-14T10:46:11.358Z,69413.41
2023-05-14T10:48:42.212Z,69390.72
2023-05-14T10:51:11.159Z,69403.94
2023-05-14T10:53:40.708Z,69345.28
2023-05-14T10:56:10.516Z,69313.91
2023-05-14T10:58:39.504Z,69276.25
2023-05-14T11:01:09.041Z,69274.94
2023-05-14T11:03:45.450Z,69253.00
2023-05-14T11:06:15.216Z,69263.69
2023-05-14T11:08:42.860Z,69217.88
2023-05-14T11:11:10.020Z,69262.38
2023-05-14T11:13:37.274Z,69266.91
2023-05-14T11:16:19.028Z,69242.56
2023-05-14T11:19:06.315Z,69210.81
2023-05-14T11:21:33.679Z,69166.53
2023-05-14T11:24:01.452Z,69175.88
2023-05-14T11:26:28.908Z,69196.97
2023-05-14T11:28:58.596Z,69207.97
2023-05-14T11:31:25.772Z,69232.47
2023-05-14T11:33:56.180Z,69249.59
2023-05-14T11:36:24.370Z,69299.66
2023-05-14T11:38:52.496Z,69317.91
2023-05-14T11:41:21.599Z,69338.44
2023-05-14T11:43:49.026Z,69349.69
2023-05-14T11:46:18.125Z,69333.31
2023-05-14T11:48:45.919Z,69345.44
2023-05-14T11:51:13.117Z,69340.72
2023-05-14T11:53:40.219Z,69322.69
2023-05-14T11:56:09.625Z,69332.16
2023-05-14T11:58:37.079Z,69370.97
2023-05-14T12:01:05.027Z,69381.44
2023-05-14T12:03:32.462Z,69350.59
2023-05-14T12:06:01.120Z,69371.72
2023-05-14T12:08:31.657Z,69413.56
2023-05-14T12:11:00.667Z,69441.94
2023-05-14T12:13:37.099Z,69484.25
2023-05-14T12:16:09.694Z,69504.22
2023-05-14T12:18:37.204Z,69561.19
2023-05-14T12:21:05.163Z,69598.94
2023-05-14T12:23:33.090Z,69622.53
2023-05-14T12:26:15.216Z,69635.66
2023-05-14T12:28:43.506Z,69606.19
2023-05-14T12:31:15.619Z,69526.50
2023-05-14T12:33:42.713Z,69538.91
2023-05-14T12:36:21.343Z,69600.97
2023-05-14T12:39:01.264Z,69685.13
2023-05-14T12:41:31.084Z,69747.41
2023-05-14T12:44:06.396Z,69820.31
2023-05-14T12:46:36.535Z,69835.94
2023-05-14T12:49:03.862Z,69887.03
2023-05-14T12:51:31.410Z,69894.50
2023-05-14T12:53:58.621Z,69821.63
2023-05-14T12:56:28.372Z,69662.31
2023-05-14T12:58:56.453Z,69520.63
2023-05-14T13:01:24.041Z,69532.22
2023-05-14T13:03:53.479Z,69548.78
2023-05-14T13:06:20.824Z,69555.06
2023-05-14T13:08:51.130Z,69568.06
2023-05-14T13:11:18.342Z,69640.25
2023-05-14T13:13:48.212Z,69698.44
2023-05-14T13:16:16.890Z,69650.78
2023-05-14T13:18:44.251Z,69541.03
2023-05-14T13:21:12.654Z,69489.03
2023-05-14T13:23:39.792Z,69465.59
2023-05-14T13:26:07.422Z,69397.81
2023-05-14T13:28:34.497Z,69348.88
2023-05-14T13:31:07.078Z,69303.81
2023-05-14T13:33:39.802Z,69276.41
2023-05-14T13:36:08.162Z,69249.03
2023-05-14T13:38:35.286Z,69265.22
2023-05-14T13:41:02.819Z,69251.69
2023-05-14T13:43:33.983Z,69255.13
2023-05-14T13:46:02.776Z,69231.56
2023-05-14T13:48:31.091Z,69216.91
2023-05-14T13:50:58.615Z,69212.94
2023-05-14T13:53:26.715Z,69200.38
2023-05-14T13:56:00.219Z,69172.28
2023-05-14T13:58:27.905Z,69179.50
2023-05-14T14:00:55.130Z,69175.88
2023-05-14T14:03:22.393Z,69158.94
2023-05-14T14:05:50.139Z,69163.69
2023-05-14T14:08:23.511Z,69141.47
2023-05-14T14:10:55.512Z,69135.78
2023-05-14T14:13:23.051Z,69127.00
2023-05-14T14:15:51.163Z,69136.53
2023-05-14T14:18:19.726Z,69112.00
2023-05-14T14:20:49.730Z,69121.13
2023-05-14T14:23:16.915Z,69139.59
2023-05-14T14:25:44.286Z,69141.88
2023-05-14T14:28:11.375Z,69138.78
2023-05-14T14:30:38.463Z,69142.22
2023-05-14T14:33:05.661Z,69138.03
2023-05-14T14:35:36.313Z,69151.91
2023-05-14T14:38:03.499Z,69153.78
2023-05-14T14:40:33.532Z,69142.38
2023-05-14T14:43:02.042Z,69139.94
2023-05-14T14:45:29.481Z,69115.25
2023-05-14T14:48:24.701Z,69095.13
2023-05-14T14:50:52.570Z,69091.31
2023-05-14T14:53:20.265Z,69084.66
2023-05-14T14:55:50.704Z,69083.19
2023-05-14T14:58:19.896Z,69073.09
2023-05-14T15:00:47.898Z,69078.59
2023-05-14T15:03:18.620Z,69061.50
2023-05-14T15:05:46.169Z,69069.84
2023-05-14T15:08:13.695Z,69064.53
2023-05-14T15:10:41.715Z,69068.16
2023-05-14T15:13:09.118Z,69044.94
2023-05-14T15:15:36.387Z,69038.13
2023-05-14T15:18:06.469Z,69051.06
2023-05-14T15:20:34.065Z,69051.06
2023-05-14T15:23:01.270Z,69058.28
2023-05-14T15:25:28.724Z,69069.28
2023-05-14T15:27:55.832Z,69065.69
2023-05-14T15:30:23.024Z,69073.09
2023-05-14T15:32:50.270Z,69059.78
2023-05-14T15:35:17.427Z,69083.69
2023-05-14T15:37:45.154Z,69074.81
2023-05-14T15:40:12.925Z,69058.06
2023-05-14T15:42:42.186Z,69041.16
2023-05-14T15:45:13.496Z,69050.66
2023-05-14T15:47:47.051Z,69057.88
2023-05-14T15:50:14.395Z,69040.19
2023-05-14T15:52:44.568Z,69048.00
2023-05-14T15:55:11.780Z,69052.75
2023-05-14T15:57:39.478Z,69039.81
2023-05-14T16:00:11.919Z,69051.06
2023-05-14T16:02:39.818Z,69057.50
2023-05-14T16:05:11.167Z,69067.97
2023-05-14T16:07:38.600Z,69053.88
2023-05-14T16:10:06.667Z,69039.47
2023-05-14T16:12:34.177Z,69033.53
2023-05-14T16:15:01.379Z,69039.47
2023-05-14T16:17:30.478Z,69030.13
2023-05-14T16:19:57.716Z,69041.16
2023-05-14T16:22:24.946Z,69039.25
2023-05-14T16:24:54.621Z,69044.97
2023-05-14T16:27:22.016Z,69043.06
2023-05-14T16:29:55.804Z,69041.16
2023-05-14T16:32:24.037Z,69036.81
2023-05-14T16:34:54.111Z,69023.69
2023-05-14T16:37:21.247Z,69018.00
2023-05-14T16:39:51.151Z,69020.28
2023-05-14T16:42:18.652Z,69016.63
2023-05-14T16:44:46.021Z,69005.47
2023-05-14T16:47:18.966Z,68989.13
2023-05-14T16:49:47.558Z,68973.97
2023-05-14T16:52:15.341Z,68954.41
2023-05-14T16:54:42.439Z,68953.06
2023-05-14T16:57:09.549Z,68940.16
2023-05-14T16:59:36.688Z,68946.06
2023-05-14T17:02:04.532Z,68938.47
2023-05-14T17:04:33.368Z,68939.59
2023-05-14T17:07:01.672Z,68922.34
2023-05-14T17:09:28.890Z,68913.03
2023-05-14T17:11:56.024Z,68913.03
2023-05-14T17:14:23.203Z,68918.56
2023-05-14T17:16:57.142Z,68915.50
2023-05-14T17:19:27.068Z,68899.94
2023-05-14T17:21:54.168Z,68912.47
2023-05-14T17:24:21.362Z,68911.72
2023-05-14T17:26:48.920Z,68915.50
2023-05-14T17:29:16.124Z,68917.97
2023-05-14T17:31:52.588Z,68913.97
2023-05-14T17:34:21.062Z,68920.44
2023-05-14T17:36:48.256Z,68915.34
2023-05-14T17:39:18.493Z,68896.91
2023-05-14T17:41:49.146Z,68899.38
2023-05-14T17:44:16.305Z,68906.22
2023-05-14T17:46:44.794Z,68907.69
2023-05-14T17:49:12.074Z,68903.94
2023-05-14T17:51:39.252Z,68904.50
2023-05-14T17:54:06.567Z,68890.28
2023-05-14T17:56:34.046Z,68888.56
2023-05-14T17:59:01.240Z,68886.31
2023-05-14T18:01:32.635Z,68881.38
2023-05-14T18:03:59.920Z,68870.94
2023-05-14T18:06:27.262Z,68862.41
2023-05-14T18:08:54.914Z,68854.25
2023-05-14T18:11:25.262Z,68841.38
2023-05-14T18:13:52.481Z,68852.34
2023-05-14T18:16:19.587Z,68840.38
2023-05-14T18:18:46.846Z,68829.19
2023-05-14T18:21:14.010Z,68825.06
2023-05-14T18:23:43.145Z,68825.63
2023-05-14T18:26:10.639Z,68827.53
2023-05-14T18:28:37.917Z,68805.88
2023-05-14T18:31:11.454Z,68804.56
2023-05-14T18:33:38.905Z,68809.34
2023-05-14T18:36:14.106Z,68789.19
2023-05-14T18:38:45.643Z,68784.06
2023-05-14T18:41:13.452Z,68773.66
2023-05-14T18:43:42.991Z,68773.44
2023-05-14T18:46:11.187Z,68757.91
2023-05-14T18:48:45.580Z,68756.59
2023-05-14T18:51:13.116Z,68751.69
2023-05-14T18:53:43.157Z,68743.31
2023-05-14T18:56:13.049Z,68753.94
2023-05-14T18:58:43.445Z,68742.41
2023-05-14T19:01:11.967Z,68732.50
2023-05-14T19:03:41.637Z,68736.13
2023-05-14T19:06:13.954Z,68708.47
2023-05-14T19:08:41.836Z,68693.69
2023-05-14T19:11:09.364Z,68693.13
2023-05-14T19:13:37.322Z,68693.50
2023-05-14T19:16:07.784Z,68684.06
2023-05-14T19:18:38.104Z,68669.09
2023-05-14T19:21:05.507Z,68655.78
2023-05-14T19:23:33.281Z,68658.09
2023-05-14T19:26:01.181Z,68642.72
2023-05-14T19:28:29.651Z,68639.13
2023-05-14T19:30:58.448Z,68650.13
2023-05-14T19:33:29.057Z,68644.63
2023-05-14T19:35:56.452Z,68648.44
2023-05-14T19:38:26.494Z,68635.72
2023-05-14T19:40:56.795Z,68646.72
2023-05-14T19:43:25.688Z,68628.72
2023-05-14T19:45:52.868Z,68627.00
2023-05-14T19:48:26.209Z,68627.56
2023-05-14T19:50:56.456Z,68614.31
2023-05-14T19:53:29.903Z,68619.44
2023-05-14T19:56:06.652Z,68628.72
2023-05-14T19:58:40.752Z,68621.34
2023-05-14T20:01:07.851Z,68598.97
2023-05-14T20:03:35.615Z,68598.97
2023-05-14T20:06:09.123Z,68584.63
2023-05-14T20:08:43.894Z,68589.53
2023-05-14T20:11:19.161Z,68586.50
2023-05-14T20:13:46.269Z,68573.81
2023-05-14T20:16:17.173Z,68563.78
2023-05-14T20:18:44.835Z,68558.50
2023-05-14T20:21:12.161Z,68564.72
2023-05-14T20:23:39.270Z,68557.16
2023-05-14T20:26:06.445Z,68552.63
2023-05-14T20:28:33.545Z,68540.13
2023-05-14T20:31:02.914Z,68528.03
2023-05-14T20:33:31.375Z,68535.59
2023-05-14T20:36:04.311Z,68529.34
2023-05-14T20:38:42.638Z,68518.00
2023-05-14T20:41:10.154Z,68518.78
2023-05-14T20:43:42.816Z,68506.25
2023-05-14T20:46:10.343Z,68496.59
2023-05-14T20:48:37.657Z,68505.47
2023-05-14T20:51:13.658Z,68505.16
2023-05-14T20:53:52.962Z,68499.81
2023-05-14T20:59:04.550Z,68497.53
2023-05-14T21:01:34.641Z,68481.28
2023-05-14T21:04:01.948Z,68489.22
2023-05-14T21:06:30.259Z,68484.31
2023-05-14T21:08:57.429Z,68486.78
2023-05-14T21:11:25.632Z,68477.50
2023-05-14T21:13:53.838Z,68478.81
2023-05-14T21:16:25.531Z,68473.16
2023-05-14T21:18:55.477Z,68465.38
2023-05-14T21:21:23.146Z,68466.72
2023-05-14T21:23:54.995Z,68465.78
2023-05-14T21:26:22.317Z,68457.44
2023-05-14T21:28:53.894Z,68458.41
2023-05-14T21:31:28.327Z,68462.38
2023-05-14T21:33:56.287Z,68457.84
2023-05-14T21:36:23.552Z,68444.41
2023-05-14T21:38:56.638Z,68451.22
2023-05-14T21:41:26.466Z,68448.75
2023-05-14T21:43:56.744Z,68438.16
2023-05-14T21:46:26.000Z,68433.44
2023-05-14T21:48:53.459Z,68425.69
2023-05-14T21:51:26.132Z,68422.47
2023-05-14T21:54:06.924Z,68431.16
2023-05-14T21:56:35.521Z,68427.56
2023-05-14T21:59:02.797Z,68428.34
2023-05-14T22:01:29.877Z,68418.13
2023-05-14T22:03:58.036Z,68414.91
2023-05-14T22:06:27.424Z,68423.59
2023-05-14T22:08:54.500Z,68423.78
2023-05-14T22:11:21.949Z,68421.53
2023-05-14T22:13:49.010Z,68418.31
2023-05-14T22:16:16.566Z,68414.16
2023-05-14T22:18:52.034Z,68407.34
2023-05-14T22:21:22.360Z,68403.00
2023-05-14T22:23:50.299Z,68407.91
2023-05-14T22:26:21.583Z,68403.00
2023-05-14T22:28:52.541Z,68399.78
2023-05-14T22:31:19.671Z,68402.06
2023-05-14T22:33:54.096Z,68411.13
2023-05-14T22:36:28.624Z,68412.63
2023-05-14T22:38:55.685Z,68406.41
2023-05-14T22:41:22.812Z,68403.19
2023-05-14T22:43:50.837Z,68409.22
2023-05-14T22:46:18.792Z,68407.72
2023-05-14T22:48:48.934Z,68414.34
2023-05-14T22:51:16.457Z,68415.47
2023-05-14T22:53:43.625Z,68419.25
2023-05-14T22:56:10.774Z,68413.75
2023-05-14T22:58:41.517Z,68411.50
2023-05-14T23:01:08.878Z,68417.72
2023-05-14T23:03:36.017Z,68427.75
2023-05-14T23:06:03.195Z,68426.06
2023-05-14T23:08:30.334Z,68423.41
2023-05-14T23:11:00.455Z,68422.28
2023-05-14T23:13:27.497Z,68427.19
2023-05-14T23:15:54.612Z,68420.00
2023-05-14T23:18:23.900Z,68416.59
2023-05-14T23:20:51.301Z,68414.91
2023-05-14T23:23:18.364Z,68415.28
2023-05-14T23:25:45.783Z,68410.38
2023-05-14T23:28:12.968Z,68408.09
2023-05-14T23:30:40.037Z,68398.81
2023-05-14T23:33:07.349Z,68400.53
2023-05-14T23:35:37.324Z,68394.31
2023-05-14T23:38:18.576Z,68389.38
2023-05-14T23:40:54.414Z,68386.94
2023-05-14T23:43:23.690Z,68388.06
2023-05-14T23:45:50.813Z,68382.97
2023-05-14T23:48:18.194Z,68368.97
2023-05-14T23:50:48.208Z,68361.97
2023-05-14T23:53:15.302Z,68350.84
2023-05-14T23:55:42.464Z,68352.72
2023-05-14T23:58:09.513Z,68342.53
